createdAt,value
2022-12-23T00:00:16.348Z,30.50
2022-12-23T00:03:05.557Z,31.10
2022-12-23T00:05:38.767Z,30.50
2022-12-23T00:08:08.699Z,31.90
2022-12-23T00:10:43.949Z,29.00
2022-12-23T00:13:30.616Z,28.30
2022-12-23T00:16:29.889Z,29.70
2022-12-23T00:18:59.257Z,28.80
2022-12-23T00:21:27.638Z,29.10
2022-12-23T00:23:56.150Z,30.90
2022-12-23T00:26:30.123Z,30.20
2022-12-23T00:30:32.636Z,32.80
2022-12-23T00:32:59.479Z,28.30
2022-12-23T00:35:37.848Z,29.40
2022-12-23T00:38:04.673Z,31.20
2022-12-23T00:40:51.857Z,29.00
2022-12-23T00:43:19.528Z,33.30
2022-12-23T00:45:53.077Z,32.10
2022-12-23T00:48:38.379Z,33.50
2022-12-23T00:51:05.073Z,25.70
2022-12-23T00:53:33.894Z,27.70
2022-12-23T00:56:02.671Z,27.90
2022-12-23T00:58:38.409Z,29.00
2022-12-23T01:01:26.657Z,24.50
2022-12-23T01:04:12.285Z,24.40
2022-12-23T01:06:40.527Z,24.40
2022-12-23T01:09:09.024Z,27.10
2022-12-23T01:11:35.810Z,30.50
2022-12-23T01:14:02.760Z,26.20
2022-12-23T01:16:30.572Z,27.40
2022-12-23T01:18:58.988Z,24.90
2022-12-23T01:21:25.683Z,29.50
2022-12-23T01:23:53.141Z,29.00
2022-12-23T01:26:20.240Z,25.20
2022-12-23T01:28:47.914Z,28.50
2022-12-23T01:31:15.107Z,25.90
2022-12-23T01:33:42.266Z,28.10
2022-12-23T01:36:10.643Z,32.60
2022-12-23T01:38:38.202Z,33.10
2022-12-23T01:41:56.284Z,35.30
2022-12-23T01:44:01.299Z,32.60
2022-12-23T01:46:28.150Z,31.40
2022-12-23T01:48:58.567Z,32.00
2022-12-23T01:51:29.821Z,31.90
2022-12-23T01:54:00.757Z,32.10
2022-12-23T01:56:39.780Z,32.80
2022-12-23T01:59:36.690Z,36.10
2022-12-23T02:02:22.229Z,34.50
2022-12-23T02:04:53.786Z,31.70
2022-12-23T02:07:39.776Z,30.90
2022-12-23T02:10:07.643Z,33.10
2022-12-23T02:12:43.309Z,31.70
2022-12-23T02:15:41.619Z,34.80
2022-12-23T02:18:24.472Z,31.70
2022-12-23T02:21:31.632Z,30.50
2022-12-23T02:24:24.596Z,31.20
2022-12-23T02:27:16.127Z,26.80
2022-12-23T02:30:16.681Z,29.80
2022-12-23T02:32:57.332Z,32.20
2022-12-23T02:35:37.266Z,34.80
2022-12-23T02:38:35.590Z,34.30
2022-12-23T02:41:14.433Z,33.30
2022-12-23T02:43:59.470Z,36.00
2022-12-23T02:46:42.659Z,32.00
2022-12-23T02:49:25.735Z,32.10
2022-12-23T02:51:57.463Z,30.60
2022-12-23T02:54:30.428Z,34.20
2022-12-23T02:57:02.232Z,30.40
2022-12-23T02:59:41.079Z,33.00
2022-12-23T03:02:08.240Z,37.70
2022-12-23T03:04:37.609Z,32.40
2022-12-23T03:07:07.998Z,33.30
2022-12-23T03:09:58.929Z,34.30
2022-12-23T03:12:40.542Z,33.20
2022-12-23T03:15:21.795Z,29.80
2022-12-23T03:18:27.693Z,28.00
2022-12-23T03:21:08.909Z,24.20
2022-12-23T03:23:43.070Z,25.30
2022-12-23T03:26:25.780Z,23.60
2022-12-23T03:29:05.339Z,27.60
2022-12-23T03:31:34.171Z,28.20
2022-12-23T03:34:11.759Z,29.60
2022-12-23T03:36:45.585Z,32.40
2022-12-23T03:39:38.639Z,32.30
2022-12-23T03:42:35.659Z,34.20
2022-12-23T03:45:38.112Z,33.00
2022-12-23T03:48:09.349Z,35.10
2022-12-23T03:50:54.795Z,33.40
2022-12-23T03:53:36.462Z,37.90
2022-12-23T03:56:17.597Z,35.50
2022-12-23T03:59:01.017Z,36.20
2022-12-23T04:01:52.672Z,36.40
2022-12-23T04:04:44.331Z,35.80
2022-12-23T04:07:26.052Z,38.20
2022-12-23T04:09:55.381Z,39.40
2022-12-23T04:12:25.499Z,38.00
2022-12-23T04:14:52.808Z,40.40
2022-12-23T04:17:21.081Z,36.30
2022-12-23T04:19:48.051Z,32.40
2022-12-23T04:22:15.566Z,34.60
2022-12-23T04:24:43.611Z,38.30
2022-12-23T04:27:16.444Z,36.40
2022-12-23T04:49:20.831Z,32.30
2022-12-23T04:51:49.643Z,32.70
2022-12-23T04:54:17.970Z,38.80
2022-12-23T04:56:46.962Z,35.20
2022-12-23T04:59:15.055Z,36.90
2022-12-23T05:01:43.138Z,35.30
2022-12-23T05:04:12.059Z,38.50
2022-12-23T05:06:40.241Z,36.00
2022-12-23T05:09:08.338Z,34.70
2022-12-23T05:11:41.860Z,35.80
2022-12-23T05:14:12.889Z,32.00
2022-12-23T05:16:40.538Z,35.80
2022-12-23T05:19:08.332Z,35.10
2022-12-23T05:21:36.179Z,36.80
2022-12-23T05:24:04.308Z,35.00
2022-12-23T05:26:32.256Z,33.90
2022-12-23T05:28:59.957Z,32.50
2022-12-23T05:31:27.831Z,30.60
2022-12-23T05:34:04.065Z,29.70
2022-12-23T05:36:34.067Z,30.60
2022-12-23T05:39:06.567Z,32.00
2022-12-23T05:41:35.137Z,33.40
2022-12-23T05:44:02.749Z,34.70
2022-12-23T05:46:30.147Z,35.30
2022-12-23T05:48:57.734Z,36.70
2022-12-23T05:51:25.406Z,37.20
2022-12-23T05:53:52.763Z,39.10
2022-12-23T05:56:19.979Z,35.10
2022-12-23T05:58:48.173Z,35.70
2022-12-23T06:01:17.188Z,37.00
2022-12-23T06:03:45.029Z,38.50
2022-12-23T06:06:13.327Z,39.20
2022-12-23T06:08:43.202Z,32.50
2022-12-23T06:11:12.376Z,34.50
2022-12-23T06:13:39.621Z,36.60
2022-12-23T06:16:10.931Z,38.00
2022-12-23T06:18:40.162Z,37.20
2022-12-23T06:21:09.086Z,37.90
2022-12-23T06:23:38.097Z,39.50
2022-12-23T06:26:06.305Z,41.10
2022-12-23T06:28:35.418Z,36.80
2022-12-23T06:31:30.776Z,36.00
2022-12-23T06:33:58.277Z,35.40
2022-12-23T06:36:25.634Z,32.10
2022-12-23T06:38:52.529Z,31.80
2022-12-23T06:41:19.678Z,30.50
2022-12-23T06:43:53.893Z,34.20
2022-12-23T06:46:23.810Z,31.80
2022-12-23T06:48:53.662Z,31.70
2022-12-23T06:51:22.191Z,31.30
2022-12-23T06:54:04.159Z,34.60
2022-12-23T06:56:34.985Z,36.40
2022-12-23T06:59:02.548Z,36.20
2022-12-23T07:01:30.824Z,33.40
2022-12-23T07:09:41.363Z,35.40
2022-12-23T07:12:09.377Z,33.80
2022-12-23T07:14:39.276Z,35.50
2022-12-23T10:14:51.675Z,64.60
2022-12-23T10:17:51.651Z,63.70
2022-12-23T10:20:32.318Z,62.70
2022-12-23T10:23:00.192Z,62.10
2022-12-23T10:25:40.359Z,65.40
2022-12-23T10:28:11.941Z,63.70
2022-12-23T10:33:49.866Z,200.60
2022-12-23T10:36:32.586Z,72.90
2022-12-23T10:39:16.046Z,89.50
2022-12-23T10:42:00.941Z,129.50
2022-12-23T10:44:37.657Z,59.10
2022-12-23T10:49:57.615Z,57.80
2022-12-23T10:52:29.320Z,63.70
2022-12-23T10:54:56.048Z,61.30
2022-12-23T10:57:24.155Z,62.20
2022-12-23T10:59:51.599Z,60.90
2022-12-23T11:02:42.907Z,59.80
2022-12-23T11:05:23.896Z,58.10
2022-12-23T11:07:50.665Z,62.40
2022-12-23T11:10:21.170Z,59.00
2022-12-23T11:12:50.538Z,58.10
2022-12-23T11:15:26.477Z,58.80
2022-12-23T11:18:11.288Z,59.70
2022-12-23T11:20:41.506Z,60.50
2022-12-23T11:23:37.672Z,60.70
2022-12-23T11:26:08.390Z,59.10
2022-12-23T11:28:46.934Z,62.70
2022-12-23T11:31:16.546Z,59.40
2022-12-23T11:33:55.479Z,56.00
2022-12-23T11:36:24.679Z,59.90
2022-12-23T11:39:14.557Z,61.20
2022-12-23T11:41:48.658Z,58.10
2022-12-23T11:44:27.629Z,59.00
2022-12-23T11:46:54.547Z,52.50
2022-12-23T11:49:22.430Z,55.40
2022-12-23T11:52:00.364Z,54.00
2022-12-23T11:54:28.747Z,54.60
2022-12-23T11:56:56.426Z,54.60
2022-12-23T11:59:26.417Z,47.70
2022-12-23T12:01:54.093Z,51.80
2022-12-23T12:04:23.901Z,52.60
2022-12-23T12:06:56.337Z,52.90
2022-12-23T12:09:24.544Z,50.20
2022-12-23T12:12:07.563Z,52.60
2022-12-23T12:14:44.281Z,51.50
2022-12-23T12:20:04.143Z,51.60
2022-12-23T12:22:40.152Z,48.90
2022-12-23T12:25:23.709Z,52.30
2022-12-23T12:28:00.811Z,52.60
2022-12-23T12:30:36.753Z,46.60
2022-12-23T12:33:15.152Z,52.50
2022-12-23T12:35:53.483Z,51.60
2022-12-23T12:38:33.794Z,50.40
2022-12-23T12:41:22.180Z,52.30
2022-12-23T12:44:15.241Z,49.80
2022-12-23T12:46:47.001Z,49.10
2022-12-23T12:49:33.412Z,47.80
2022-12-23T12:52:12.150Z,60.80
2022-12-23T12:54:48.477Z,51.00
2022-12-23T12:57:17.640Z,58.20
2022-12-23T12:59:47.463Z,56.50
2022-12-23T13:02:44.674Z,56.70
2022-12-23T13:05:16.783Z,62.30
2022-12-23T13:07:55.400Z,52.80
2022-12-23T13:10:31.207Z,58.40
2022-12-23T13:13:16.658Z,53.90
2022-12-23T13:16:19.268Z,51.80
2022-12-23T13:18:58.693Z,50.80
2022-12-23T13:21:52.674Z,51.10
2022-12-23T13:24:31.330Z,50.60
2022-12-23T13:27:13.420Z,55.10
2022-12-23T13:30:08.315Z,54.50
2022-12-23T13:33:13.899Z,54.60
2022-12-23T13:35:46.459Z,52.80
2022-12-23T13:38:22.053Z,51.70
2022-12-23T13:40:59.766Z,55.90
2022-12-23T13:43:36.028Z,56.80
2022-12-23T13:46:14.397Z,57.50
2022-12-23T13:48:51.821Z,51.40
2022-12-23T13:51:49.732Z,45.20
2022-12-23T13:54:36.221Z,46.40
2022-12-23T13:59:45.515Z,50.00
2022-12-23T14:02:37.440Z,42.00
2022-12-23T14:05:25.943Z,52.10
2022-12-23T14:07:53.982Z,58.20
2022-12-23T14:10:24.366Z,53.00
2022-12-23T14:12:59.400Z,57.20
2022-12-23T14:15:38.590Z,65.00
2022-12-23T14:18:08.201Z,63.90
2022-12-23T14:21:24.484Z,66.40
2022-12-23T14:24:07.704Z,68.00
2022-12-23T14:26:53.419Z,63.00
2022-12-23T14:29:45.119Z,62.40
2022-12-23T14:32:27.006Z,57.80
2022-12-23T14:35:04.188Z,60.60
2022-12-23T14:37:33.184Z,62.20
2022-12-23T14:40:37.798Z,67.90
2022-12-23T14:43:27.036Z,67.90
2022-12-23T14:46:01.782Z,74.70
2022-12-23T14:48:43.816Z,78.10
2022-12-23T14:51:10.445Z,81.60
2022-12-23T14:53:59.637Z,82.90
2022-12-23T14:56:38.178Z,86.80
2022-12-23T14:59:13.837Z,88.70
2022-12-23T15:01:45.815Z,93.70
2022-12-23T15:04:24.279Z,84.70
2022-12-23T15:07:01.943Z,86.30
2022-12-23T15:09:34.281Z,94.40
2022-12-23T15:12:10.512Z,84.50
2022-12-23T15:14:47.183Z,80.50
2022-12-23T15:17:15.955Z,73.70
2022-12-23T15:19:47.620Z,74.90
2022-12-23T15:22:23.823Z,69.40
2022-12-23T15:24:55.196Z,73.10
2022-12-23T15:27:30.354Z,75.00
2022-12-23T15:29:57.665Z,77.10
2022-12-23T15:32:26.176Z,96.50
2022-12-23T15:35:00.717Z,76.00
2022-12-23T15:37:30.135Z,71.90
2022-12-23T15:40:04.846Z,82.40
2022-12-23T15:42:38.917Z,81.80
2022-12-23T15:45:38.004Z,92.10
2022-12-23T15:48:07.197Z,92.90
2022-12-23T15:50:40.272Z,100.60
2022-12-23T15:53:09.029Z,105.40
2022-12-23T15:55:39.759Z,99.00
2022-12-23T15:58:06.620Z,90.90
2022-12-23T16:00:51.306Z,96.30
2022-12-23T16:03:22.918Z,105.40
2022-12-23T16:05:50.221Z,105.80
2022-12-23T16:08:29.800Z,96.20
2022-12-23T16:11:06.558Z,82.40
2022-12-23T16:13:33.334Z,84.20
2022-12-23T16:16:27.757Z,91.90
2022-12-23T16:18:54.474Z,102.80
2022-12-23T16:21:25.230Z,107.00
2022-12-23T16:23:52.383Z,101.70
2022-12-23T16:26:20.851Z,87.80
2022-12-23T16:28:54.570Z,82.50
2022-12-23T16:31:22.699Z,88.90
2022-12-23T16:34:00.932Z,87.50
2022-12-23T16:36:27.772Z,71.50
2022-12-23T16:39:06.694Z,89.20
2022-12-23T16:41:34.299Z,104.50
2022-12-23T16:44:01.631Z,109.50
2022-12-23T16:46:35.488Z,111.00
2022-12-23T16:49:07.549Z,108.60
2022-12-23T16:51:35.406Z,113.80
2022-12-23T16:54:02.639Z,114.40
2022-12-23T16:56:35.267Z,107.70
2022-12-23T16:59:03.591Z,145.30
2022-12-23T17:01:39.906Z,166.80
2022-12-23T17:04:08.129Z,120.20
2022-12-23T17:06:36.305Z,100.90
2022-12-23T17:09:04.977Z,88.60
2022-12-23T17:11:37.117Z,82.10
2022-12-23T17:14:10.436Z,77.80
2022-12-23T17:16:40.453Z,82.10
2022-12-23T17:19:07.224Z,248.60
2022-12-23T17:21:37.898Z,176.50
2022-12-23T17:24:18.495Z,126.10
2022-12-23T17:26:50.700Z,117.40
2022-12-23T17:29:17.498Z,108.70
2022-12-23T17:31:47.234Z,96.00
2022-12-23T17:34:17.192Z,95.30
2022-12-23T17:36:49.492Z,85.40
2022-12-23T17:39:17.360Z,79.40
2022-12-23T17:41:44.122Z,90.00
2022-12-23T17:44:14.284Z,72.90
2022-12-23T17:46:42.654Z,61.70
2022-12-23T17:49:09.344Z,63.20
2022-12-23T17:51:38.805Z,63.40
2022-12-23T17:54:06.040Z,84.80
2022-12-23T17:56:32.967Z,97.00
2022-12-23T17:59:00.048Z,90.50
2022-12-23T18:01:30.352Z,114.00
2022-12-23T18:03:58.803Z,88.90
2022-12-23T18:06:27.995Z,81.50
2022-12-23T18:08:58.590Z,132.10
2022-12-23T18:11:37.946Z,104.00
2022-12-23T18:14:05.109Z,226.50
2022-12-23T18:16:32.073Z,196.20
2022-12-23T18:18:58.786Z,143.10
2022-12-23T18:21:27.879Z,146.10
2022-12-23T18:23:58.916Z,148.90
2022-12-23T18:26:25.639Z,133.60
2022-12-23T18:28:53.404Z,136.40
2022-12-23T18:31:26.544Z,133.10
2022-12-23T18:33:54.220Z,133.30
2022-12-23T18:36:26.445Z,116.00
2022-12-23T18:38:53.971Z,98.40
2022-12-23T18:41:21.502Z,85.60
2022-12-23T18:43:49.032Z,86.20
2022-12-23T18:46:17.293Z,98.50
2022-12-23T18:48:43.957Z,117.90
2022-12-23T18:51:15.928Z,98.50
2022-12-23T18:53:43.076Z,91.20
2022-12-23T18:56:20.477Z,98.30
2022-12-23T18:58:49.257Z,109.00
2022-12-23T19:01:17.795Z,111.50
2022-12-23T19:03:45.172Z,110.70
2022-12-23T19:06:14.401Z,93.60
2022-12-23T19:08:43.050Z,91.40
2022-12-23T19:11:39.237Z,85.40
2022-12-23T19:14:06.049Z,109.40
2022-12-23T19:16:32.565Z,104.30
2022-12-23T19:18:59.643Z,97.70
2022-12-23T19:21:26.284Z,81.80
2022-12-23T19:23:52.860Z,79.20
2022-12-23T19:26:19.589Z,76.60
2022-12-23T19:28:48.202Z,104.80
2022-12-23T19:31:17.046Z,109.40
2022-12-23T19:33:45.985Z,116.30
2022-12-23T19:36:22.194Z,137.00
2022-12-23T19:38:49.623Z,130.10
2022-12-23T19:41:17.801Z,85.50
2022-12-23T19:43:46.589Z,85.90
2022-12-23T19:46:14.824Z,117.00
2022-12-23T19:48:42.743Z,120.60
2022-12-23T19:51:14.034Z,115.10
2022-12-23T19:53:41.451Z,113.70
2022-12-23T19:56:15.285Z,114.90
2022-12-23T19:58:43.805Z,97.40
2022-12-23T20:01:19.463Z,112.60
2022-12-23T20:03:48.152Z,84.10
2022-12-23T20:06:27.262Z,80.10
2022-12-23T20:09:00.083Z,87.30
2022-12-23T20:11:29.835Z,90.90
2022-12-23T20:13:56.738Z,105.20
2022-12-23T20:16:24.014Z,98.30
2022-12-23T20:18:50.871Z,82.90
2022-12-23T20:21:18.206Z,83.30
2022-12-23T20:23:44.942Z,89.10
2022-12-23T20:26:13.350Z,88.80
2022-12-23T20:28:40.117Z,96.50
2022-12-23T20:31:16.921Z,98.40
2022-12-23T20:33:44.646Z,97.80
2022-12-23T20:36:20.277Z,100.10
2022-12-23T20:38:47.292Z,94.00
2022-12-23T20:41:17.540Z,84.90
2022-12-23T20:43:52.533Z,86.30
2022-12-23T20:46:31.228Z,92.20
2022-12-23T20:48:57.818Z,94.80
2022-12-23T20:51:25.455Z,120.60
2022-12-23T20:53:55.216Z,132.20
2022-12-23T20:56:26.887Z,138.10
2022-12-23T20:58:54.938Z,153.90
2022-12-23T21:01:24.647Z,138.10
2022-12-23T21:03:51.520Z,115.70
2022-12-23T21:06:18.631Z,126.40
2022-12-23T21:08:45.607Z,114.50
2022-12-23T21:11:12.278Z,129.20
2022-12-23T21:13:39.730Z,134.90
2022-12-23T21:16:09.486Z,123.10
2022-12-23T21:18:43.367Z,119.30
2022-12-23T21:21:10.845Z,117.90
2022-12-23T21:23:39.987Z,124.40
2022-12-23T21:26:19.060Z,133.90
2022-12-23T21:28:47.323Z,106.00
2022-12-23T21:31:16.279Z,98.30
2022-12-23T21:33:44.444Z,103.40
2022-12-23T21:36:19.780Z,101.70
2022-12-23T21:38:48.588Z,127.00
2022-12-23T21:41:18.828Z,149.90
2022-12-23T21:43:45.755Z,149.10
2022-12-23T21:46:18.894Z,170.10
2022-12-23T21:48:48.187Z,142.30
2022-12-23T21:51:24.712Z,121.40
2022-12-23T21:53:54.473Z,127.00
2022-12-23T21:56:25.402Z,128.90
2022-12-23T21:59:01.901Z,121.00
2022-12-23T22:03:58.440Z,120.40
2022-12-23T22:06:31.466Z,127.20
2022-12-23T22:08:58.953Z,130.40
2022-12-23T22:11:28.628Z,115.30
2022-12-23T22:13:57.155Z,123.90
2022-12-23T22:16:26.107Z,118.30
2022-12-23T22:18:54.157Z,114.10
2022-12-23T22:21:23.653Z,135.90
2022-12-23T22:23:51.576Z,114.50
2022-12-23T22:26:25.358Z,107.90
2022-12-23T22:28:56.723Z,125.00
2022-12-23T22:31:28.709Z,124.40
2022-12-23T22:33:55.383Z,141.10
2022-12-23T22:36:22.172Z,122.10
2022-12-23T22:38:53.565Z,139.20
2022-12-23T22:41:20.858Z,107.20
2022-12-23T22:43:47.608Z,117.00
2022-12-23T22:46:17.696Z,113.10
2022-12-23T22:48:44.846Z,113.20
2022-12-23T22:51:15.817Z,115.00
2022-12-23T22:53:43.376Z,116.90
2022-12-23T22:56:15.649Z,117.60
2022-12-23T22:58:42.769Z,111.80
2022-12-23T23:01:24.932Z,109.40
2022-12-23T23:03:56.671Z,96.80
2022-12-23T23:06:30.489Z,86.10
2022-12-23T23:08:58.150Z,72.00
2022-12-23T23:11:26.282Z,69.00
2022-12-23T23:13:53.701Z,74.60
2022-12-23T23:16:24.293Z,83.70
2022-12-23T23:18:52.778Z,100.10
2022-12-23T23:21:20.465Z,103.20
2022-12-23T23:23:47.316Z,112.00
2022-12-23T23:26:14.260Z,92.10
2022-12-23T23:28:41.795Z,90.20
2022-12-23T23:31:40.385Z,96.20
2022-12-23T23:33:57.186Z,86.20
2022-12-23T23:36:23.953Z,90.10
2022-12-23T23:38:50.589Z,88.40
2022-12-23T23:41:22.423Z,81.20
2022-12-23T23:43:50.465Z,91.30
2022-12-23T23:46:17.227Z,86.40
2022-12-23T23:48:44.139Z,82.40
2022-12-23T23:51:11.806Z,83.80
2022-12-23T23:53:38.730Z,89.10
2022-12-23T23:56:07.161Z,88.20
2022-12-23T23:58:35.597Z,88.70
